Salliquelo, Argentina
Current Conditions -  °F | °C
As of 12:00 PM on Friday 19 Dec 2014 (Local Time) from SAOC Reporting Station
Clear Clear  
Wind Chill: 91°   Ceiling: Unl
Heat Index: 91°   Visibility: 6mi
Dew Point: 57°   Wind: 24mph
Humidity: 31%   Direction: 360°N
Pressure: 29.62"   Gusts: NA
Location:  36.75°S, 62.93°W
Report Text: SAOC 191500Z 36021KT CAVOK 33/14 Q1003
Loading
Personal Weather Stations






























Interactive Weather Map New forecast layout! Learn more

10-Day Weather Forecast

Advertisements
Track Severe Weather on mobile